Time;durP1;ratioP1;P1;durP2;ratioP2;P2;SDS_P1;SDS_P2;PMS_P1;PMS_P2;Temp;Humidity;BMP_temperature;BMP_pressure;BME280_temperature;BME280_humidity;BME280_pressure;Samples;Min_cycle;Max_cycle;Signal;HPM_P1;HPM_P2
2022/10/25 00:01:40;;;;;;;;;;;14.40;99.90;;;;;;5038981;28;19912;-74
2022/10/25 00:04:05;;;;;;;;;;;14.40;99.90;;;;;;5057225;28;19908;-75
2022/10/25 00:06:31;;;;;;;;;;;14.40;99.90;;;;;;5056840;28;20388;-74
2022/10/25 00:08:56;;;;;;;;;;;14.30;99.90;;;;;;5056866;28;19940;-75
2022/10/25 00:11:23;;;;;;;;;;;14.30;99.90;;;;;;5057051;28;19960;-75
2022/10/25 00:13:49;;;;;;;;;;;14.30;99.90;;;;;;5056738;28;19905;-76
2022/10/25 00:16:16;;;;;;;;;;;14.40;99.90;;;;;;5038762;28;20288;-74
2022/10/25 00:18:41;;;;;;;;;;;14.40;99.90;;;;;;5056630;28;19912;-74
2022/10/25 00:21:07;;;;;;;;;;;14.30;99.90;;;;;;5056534;28;19908;-75
2022/10/25 00:23:33;;;;;;;;;;;14.40;99.90;;;;;;5056869;28;19911;-74
2022/10/25 00:26:02;;;;;;;;;;;14.30;99.90;;;;;;5056497;28;19912;-75
2022/10/25 00:28:28;;;;;;;;;;;14.40;99.90;;;;;;5056504;28;19999;-75
2022/10/25 00:31:03;;;;;;;;;;;14.40;99.90;;;;;;5055315;28;19951;-74
2022/10/25 00:33:32;;;;;;;;;;;14.40;99.90;;;;;;5056791;28;19916;-74
2022/10/25 00:36:07;;;;;;;;;;;14.40;99.90;;;;;;5056050;28;19916;-75
2022/10/25 00:38:33;;;;;;;;;;;14.40;99.90;;;;;;5056276;28;20379;-75
2022/10/25 00:40:59;;;;;;;;;;;14.50;99.90;;;;;;5038255;28;20386;-76
2022/10/25 00:43:32;;;;;;;;;;;14.50;99.90;;;;;;5056757;28;19905;-77
2022/10/25 00:45:58;;;;;;;;;;;14.50;99.90;;;;;;5056152;28;19909;-75
2022/10/25 00:48:23;;;;;;;;;;;14.50;99.90;;;;;;5056115;28;20420;-78
2022/10/25 00:50:52;;;;;;;;;;;14.60;99.90;;;;;;5056651;28;19972;-75
2022/10/25 00:53:28;;;;;;;;;;;14.60;99.90;;;;;;5056030;28;19999;-75
2022/10/25 00:55:58;;;;;;;;;;;14.60;99.90;;;;;;5056247;28;19905;-75
2022/10/25 00:58:26;;;;;;;;;;;14.70;99.90;;;;;;5038024;28;19912;-76
2022/10/25 01:00:51;;;;;;;;;;;14.70;99.90;;;;;;5055822;28;20438;-77
2022/10/25 01:03:19;;;;;;;;;;;14.70;99.90;;;;;;5055813;28;19905;-76
2022/10/25 01:05:45;;;;;;;;;;;14.70;99.90;;;;;;5056037;28;19954;-75
2022/10/25 01:08:11;;;;;;;;;;;14.60;99.90;;;;;;5055690;28;19904;-76
2022/10/25 01:10:37;;;;;;;;;;;14.70;99.90;;;;;;5055667;28;19928;-75
2022/10/25 01:13:03;;;;;;;;;;;14.70;99.90;;;;;;5056171;28;19911;-76
2022/10/25 01:15:33;;;;;;;;;;;14.80;99.90;;;;;;5055582;28;19999;-75
2022/10/25 01:18:06;;;;;;;;;;;14.80;99.90;;;;;;5056099;28;19905;-76
2022/10/25 01:20:52;;;;;;;;;;;14.80;99.90;;;;;;5055586;28;19912;-74
2022/10/25 01:23:23;;;;;;;;;;;14.70;99.90;;;;;;5056059;28;20311;-74
2022/10/25 01:26:12;;;;;;;;;;;14.80;99.90;;;;;;5055380;28;19984;-76
2022/10/25 01:28:53;;;;;;;;;;;14.80;99.90;;;;;;5055922;28;19942;-74
2022/10/25 01:31:22;;;;;;;;;;;14.70;99.90;;;;;;5055353;28;19955;-74
2022/10/25 01:33:54;;;;;;;;;;;14.70;99.90;;;;;;5055794;28;19911;-76
2022/10/25 01:36:22;;;;;;;;;;;14.70;99.90;;;;;;5055445;28;19924;-77
2022/10/25 01:39:23;;;;;;;;;;;14.70;99.90;;;;;;5037249;28;19905;-76
2022/10/25 01:41:56;;;;;;;;;;;14.80;99.90;;;;;;4974064;28;19929;-77
2022/10/25 01:44:40;;;;;;;;;;;14.70;99.90;;;;;;5042200;28;19905;-75
2022/10/25 01:47:13;;;;;;;;;;;14.70;99.90;;;;;;5055279;28;19916;-77
2022/10/25 01:50:07;;;;;;;;;;;14.70;99.90;;;;;;5054933;28;19943;-75
2022/10/25 01:52:33;;;;;;;;;;;14.70;99.90;;;;;;5037351;28;19912;-76
2022/10/25 01:54:58;;;;;;;;;;;14.70;99.90;;;;;;5054851;28;19905;-75
2022/10/25 01:57:41;;;;;;;;;;;14.70;99.90;;;;;;5055078;28;20303;-75
2022/10/25 02:00:09;;;;;;;;;;;14.70;99.90;;;;;;5036615;28;19991;-75
2022/10/25 02:02:34;;;;;;;;;;;14.60;99.90;;;;;;5054616;28;20327;-75
2022/10/25 02:05:13;;;;;;;;;;;14.60;99.90;;;;;;5054917;28;19909;-76
2022/10/25 02:07:46;;;;;;;;;;;14.60;99.90;;;;;;5054616;28;19905;-75
2022/10/25 02:10:17;;;;;;;;;;;14.60;99.90;;;;;;5055115;28;20383;-76
2022/10/25 02:12:57;;;;;;;;;;;14.70;99.90;;;;;;5054526;28;19920;-77
2022/10/25 02:15:33;;;;;;;;;;;14.60;99.90;;;;;;5054728;28;19939;-77
2022/10/25 02:18:00;;;;;;;;;;;14.60;99.90;;;;;;5054396;28;19904;-77
2022/10/25 02:20:28;;;;;;;;;;;14.60;99.90;;;;;;5054375;28;19909;-77
2022/10/25 02:22:54;;;;;;;;;;;14.50;99.90;;;;;;5054767;28;20272;-77
2022/10/25 02:25:20;;;;;;;;;;;14.60;99.90;;;;;;5054234;28;19905;-76
2022/10/25 02:27:46;;;;;;;;;;;14.60;99.90;;;;;;5054515;28;19909;-75
2022/10/25 02:30:11;;;;;;;;;;;14.60;99.90;;;;;;5054148;28;19905;-77
2022/10/25 02:32:37;;;;;;;;;;;14.60;99.90;;;;;;5054598;28;20360;-76
2022/10/25 02:35:02;;;;;;;;;;;14.60;99.90;;;;;;5054427;28;20237;-78
2022/10/25 02:37:29;;;;;;;;;;;14.60;99.90;;;;;;5053725;28;19916;-76
2022/10/25 02:39:54;;;;;;;;;;;14.60;99.90;;;;;;5054082;28;19912;-76
2022/10/25 02:42:20;;;;;;;;;;;14.60;99.90;;;;;;5054200;28;19967;-76
2022/10/25 02:44:45;;;;;;;;;;;14.60;99.90;;;;;;5053958;28;19909;-76
2022/10/25 02:47:11;;;;;;;;;;;14.50;99.90;;;;;;5053925;28;19908;-76
2022/10/25 02:49:36;;;;;;;;;;;14.60;99.90;;;;;;5036055;28;19940;-76
2022/10/25 02:52:02;;;;;;;;;;;14.60;99.90;;;;;;5054416;28;19912;-75
2022/10/25 02:54:27;;;;;;;;;;;14.60;99.90;;;;;;5053298;28;20327;-75
2022/10/25 02:56:53;;;;;;;;;;;14.60;99.90;;;;;;5054085;28;20254;-76
2022/10/25 02:59:20;;;;;;;;;;;14.60;99.90;;;;;;5053778;28;20315;-77
2022/10/25 03:01:45;;;;;;;;;;;14.50;99.90;;;;;;5053636;28;20347;-76
2022/10/25 03:04:11;;;;;;;;;;;14.50;99.90;;;;;;5053719;28;19944;-77
2022/10/25 03:06:36;;;;;;;;;;;14.50;99.90;;;;;;5053930;28;19912;-77
2022/10/25 03:09:02;;;;;;;;;;;14.50;99.90;;;;;;5053882;28;19904;-75
2022/10/25 03:11:28;;;;;;;;;;;14.50;99.90;;;;;;5053607;28;19904;-75
2022/10/25 03:13:53;;;;;;;;;;;14.50;99.90;;;;;;5053627;28;19913;-76
2022/10/25 03:16:19;;;;;;;;;;;14.50;99.90;;;;;;5053586;28;20312;-76
2022/10/25 03:18:44;;;;;;;;;;;14.50;99.90;;;;;;5035672;28;19905;-75
2022/10/25 03:21:10;;;;;;;;;;;14.40;99.90;;;;;;5053473;28;19912;-77
2022/10/25 03:23:35;;;;;;;;;;;14.40;99.90;;;;;;5053768;28;19924;-76
2022/10/25 03:26:01;;;;;;;;;;;14.40;99.90;;;;;;5053475;28;19909;-76
2022/10/25 03:28:27;;;;;;;;;;;14.40;99.90;;;;;;5053737;28;19955;-76
2022/10/25 03:30:53;;;;;;;;;;;14.40;99.90;;;;;;5035511;28;19904;-75
2022/10/25 03:33:19;;;;;;;;;;;14.40;99.90;;;;;;5053950;28;19942;-76
2022/10/25 03:35:44;;;;;;;;;;;14.40;99.90;;;;;;5053155;28;20368;-74
2022/10/25 03:38:10;;;;;;;;;;;14.40;99.90;;;;;;5053910;28;19999;-75
2022/10/25 03:40:35;;;;;;;;;;;14.40;99.90;;;;;;5053629;28;19951;-76
2022/10/25 03:43:01;;;;;;;;;;;14.40;99.90;;;;;;5053252;28;19916;-75
2022/10/25 03:45:26;;;;;;;;;;;14.40;99.90;;;;;;5053298;28;19911;-76
2022/10/25 03:47:52;;;;;;;;;;;14.40;99.90;;;;;;5053551;28;19913;-76
2022/10/25 03:50:18;;;;;;;;;;;14.40;99.90;;;;;;5053209;28;19911;-74
2022/10/25 03:52:43;;;;;;;;;;;14.40;99.90;;;;;;5035356;28;19904;-76
2022/10/25 03:55:09;;;;;;;;;;;14.30;99.90;;;;;;5053214;28;19928;-76
2022/10/25 03:57:35;;;;;;;;;;;14.30;99.90;;;;;;5053734;28;19911;-76
2022/10/25 04:00:00;;;;;;;;;;;14.40;99.90;;;;;;5053106;28;19948;-76
2022/10/25 04:02:26;;;;;;;;;;;14.30;99.90;;;;;;5053300;28;19913;-76
2022/10/25 04:04:52;;;;;;;;;;;14.40;99.90;;;;;;5054572;28;19904;-74
2022/10/25 04:07:17;;;;;;;;;;;14.40;99.90;;;;;;5056907;28;20319;-76
2022/10/25 04:09:43;;;;;;;;;;;14.40;99.90;;;;;;5057140;28;20341;-75
2022/10/25 04:12:08;;;;;;;;;;;14.30;99.90;;;;;;5056869;28;19905;-76
2022/10/25 04:14:34;;;;;;;;;;;14.30;99.90;;;;;;5056806;28;19912;-75
2022/10/25 04:16:59;;;;;;;;;;;14.30;99.90;;;;;;5056990;28;20265;-76
2022/10/25 04:19:25;;;;;;;;;;;14.30;99.90;;;;;;5056677;28;19904;-78
2022/10/25 04:21:50;;;;;;;;;;;14.20;99.90;;;;;;5056638;28;19916;-76
2022/10/25 04:24:16;;;;;;;;;;;14.10;99.90;;;;;;5038727;28;20007;-76
2022/10/25 04:26:41;;;;;;;;;;;14.10;99.90;;;;;;5057123;28;19905;-76
2022/10/25 04:29:07;;;;;;;;;;;14.20;99.90;;;;;;5056514;28;20043;-77
2022/10/25 04:31:33;;;;;;;;;;;14.10;99.90;;;;;;5056507;28;20417;-78
2022/10/25 04:33:58;;;;;;;;;;;14.10;99.90;;;;;;5057121;28;19905;-77
2022/10/25 04:36:26;;;;;;;;;;;14.10;99.90;;;;;;5056204;28;19913;-76
2022/10/25 04:38:52;;;;;;;;;;;14.00;99.90;;;;;;5056960;28;19909;-74
2022/10/25 04:41:18;;;;;;;;;;;14.00;99.90;;;;;;5056469;28;19937;-78
2022/10/25 04:43:44;;;;;;;;;;;14.10;99.90;;;;;;5056222;28;19905;-74
2022/10/25 04:46:10;;;;;;;;;;;14.00;99.90;;;;;;5056736;28;19904;-77
2022/10/25 04:48:39;;;;;;;;;;;14.10;99.90;;;;;;5056122;28;19915;-76
2022/10/25 04:51:05;;;;;;;;;;;14.10;99.90;;;;;;5056113;28;19905;-74
2022/10/25 04:53:31;;;;;;;;;;;14.10;99.90;;;;;;5056040;28;19912;-77
2022/10/25 04:56:00;;;;;;;;;;;14.10;99.90;;;;;;5056547;28;19908;-74
2022/10/25 04:58:26;;;;;;;;;;;14.10;99.90;;;;;;5055950;28;19909;-77
2022/10/25 05:00:52;;;;;;;;;;;14.00;99.90;;;;;;5055929;28;20280;-77
2022/10/25 05:03:17;;;;;;;;;;;14.00;99.90;;;;;;5056354;28;19908;-75
2022/10/25 05:05:43;;;;;;;;;;;14.00;99.90;;;;;;5056040;28;19912;-75
2022/10/25 05:08:08;;;;;;;;;;;14.00;99.90;;;;;;5055751;28;19905;-76
2022/10/25 05:10:34;;;;;;;;;;;14.00;99.90;;;;;;5055745;28;19905;-77
2022/10/25 05:13:01;;;;;;;;;;;14.00;99.90;;;;;;5055926;28;19911;-76
2022/10/25 05:15:27;;;;;;;;;;;13.90;99.90;;;;;;5055671;28;20306;-76
2022/10/25 05:17:56;;;;;;;;;;;13.90;99.90;;;;;;5055322;28;19996;-77
2022/10/25 05:20:21;;;;;;;;;;;13.90;99.90;;;;;;5055827;28;19904;-77
2022/10/25 05:22:47;;;;;;;;;;;13.90;99.90;;;;;;5055985;28;19909;-76
2022/10/25 05:25:12;;;;;;;;;;;13.90;99.90;;;;;;5055432;28;19967;-75
2022/10/25 05:27:38;;;;;;;;;;;13.90;99.90;;;;;;5055932;28;19904;-75
2022/10/25 05:30:04;;;;;;;;;;;13.90;99.90;;;;;;5055384;28;19959;-78
2022/10/25 05:32:29;;;;;;;;;;;13.80;99.90;;;;;;5055674;28;19958;-76
2022/10/25 05:34:55;;;;;;;;;;;13.90;99.90;;;;;;5055265;28;19912;-75
2022/10/25 05:37:20;;;;;;;;;;;13.90;99.90;;;;;;5055191;28;19913;-76
2022/10/25 05:39:46;;;;;;;;;;;14.00;99.90;;;;;;5055416;28;19995;-75
2022/10/25 05:42:11;;;;;;;;;;;14.00;99.90;;;;;;5055048;28;20284;-76
2022/10/25 05:44:37;;;;;;;;;;;14.00;99.90;;;;;;5055075;28;19905;-76
2022/10/25 05:47:02;;;;;;;;;;;14.00;99.90;;;;;;5055267;28;19905;-76
2022/10/25 05:49:28;;;;;;;;;;;14.00;99.90;;;;;;5054909;28;20319;-76
2022/10/25 05:51:53;;;;;;;;;;;14.00;99.90;;;;;;5055474;28;20000;-75
2022/10/25 05:54:19;;;;;;;;;;;14.00;99.90;;;;;;5054868;28;19911;-76
2022/10/25 05:56:44;;;;;;;;;;;13.90;99.90;;;;;;5055133;28;19905;-74
2022/10/25 05:59:11;;;;;;;;;;;14.00;99.90;;;;;;5054779;28;19904;-75
2022/10/25 06:01:37;;;;;;;;;;;14.00;99.90;;;;;;5055198;28;19919;-77
2022/10/25 06:04:03;;;;;;;;;;;13.90;99.90;;;;;;5054685;28;19904;-77
2022/10/25 06:06:29;;;;;;;;;;;14.00;99.90;;;;;;5055189;28;19911;-77
2022/10/25 06:08:56;;;;;;;;;;;14.00;99.90;;;;;;5054643;28;19905;-76
2022/10/25 06:11:21;;;;;;;;;;;13.90;99.90;;;;;;5054824;28;19904;-76
2022/10/25 06:13:47;;;;;;;;;;;14.00;99.90;;;;;;5036667;28;19912;-77
2022/10/25 06:16:15;;;;;;;;;;;14.00;99.90;;;;;;5054473;28;19908;-73
2022/10/25 06:18:40;;;;;;;;;;;14.00;99.90;;;;;;5054778;28;19905;-77
2022/10/25 06:21:07;;;;;;;;;;;13.90;99.90;;;;;;5054330;28;19909;-74
2022/10/25 06:23:35;;;;;;;;;;;13.90;99.90;;;;;;5036471;28;19904;-76
2022/10/25 06:26:05;;;;;;;;;;;13.90;99.90;;;;;;5054640;28;19909;-75
2022/10/25 06:28:31;;;;;;;;;;;14.00;99.90;;;;;;5053489;28;19905;-77
2022/10/25 06:31:23;;;;;;;;;;;14.00;99.90;;;;;;5054822;28;19992;-75
2022/10/25 06:33:49;;;;;;;;;;;14.10;99.90;;;;;;5050580;28;19959;-76
2022/10/25 06:36:15;;;;;;;;;;;14.10;99.90;;;;;;5053946;28;19917;-76
2022/10/25 06:38:42;;;;;;;;;;;14.20;99.90;;;;;;5054391;28;19954;-76
2022/10/25 06:41:15;;;;;;;;;;;14.10;99.90;;;;;;5053950;28;19911;-76
2022/10/25 06:43:40;;;;;;;;;;;14.10;99.90;;;;;;5036111;28;19909;-76
2022/10/25 06:46:16;;;;;;;;;;;14.10;99.90;;;;;;5053986;28;19909;-76
2022/10/25 06:48:42;;;;;;;;;;;14.10;99.90;;;;;;5054517;28;19911;-77
2022/10/25 06:51:10;;;;;;;;;;;14.10;99.90;;;;;;5053913;28;19904;-74
2022/10/25 06:53:36;;;;;;;;;;;14.10;99.90;;;;;;5053828;28;19916;-76
2022/10/25 06:56:06;;;;;;;;;;;14.00;99.90;;;;;;5054118;28;19905;-74
2022/10/25 06:58:32;;;;;;;;;;;14.10;99.90;;;;;;5053750;28;20407;-76
2022/10/25 07:01:01;;;;;;;;;;;14.20;99.90;;;;;;5054312;28;19911;-76
2022/10/25 07:03:29;;;;;;;;;;;14.20;99.90;;;;;;5053725;28;20011;-76
2022/10/25 07:05:57;;;;;;;;;;;14.10;99.90;;;;;;5053668;28;20034;-75
2022/10/25 07:08:23;;;;;;;;;;;14.10;99.90;;;;;;5051415;28;20340;-82
2022/10/25 07:10:54;;;;;;;;;;;14.20;99.90;;;;;;5051863;28;20010;-81
2022/10/25 07:13:20;;;;;;;;;;;14.20;99.90;;;;;;5053186;28;19905;-81
2022/10/25 07:15:46;;;;;;;;;;;14.20;99.90;;;;;;5034645;28;19915;-79
2022/10/25 07:18:11;;;;;;;;;;;14.30;99.90;;;;;;5052551;28;19909;-83
2022/10/25 07:20:37;;;;;;;;;;;14.30;99.90;;;;;;5052050;28;19916;-81
2022/10/25 07:23:02;;;;;;;;;;;14.40;99.90;;;;;;5035567;28;20430;-80
2022/10/25 07:25:28;;;;;;;;;;;14.40;99.90;;;;;;5053457;28;19911;-79
2022/10/25 07:27:53;;;;;;;;;;;14.50;99.90;;;;;;5033680;28;19931;-80
2022/10/25 07:30:19;;;;;;;;;;;14.50;99.90;;;;;;5053492;28;19917;-77
2022/10/25 07:32:47;;;;;;;;;;;14.60;99.90;;;;;;5035402;28;19940;-81
2022/10/25 07:35:13;;;;;;;;;;;14.50;99.90;;;;;;5033565;28;20373;-78
2022/10/25 07:37:38;;;;;;;;;;;14.60;99.90;;;;;;5033065;28;19920;-82
2022/10/25 07:40:04;;;;;;;;;;;14.60;99.90;;;;;;5018765;28;19905;-82
2022/10/25 07:42:30;;;;;;;;;;;14.60;99.90;;;;;;5019514;28;19913;-84
2022/10/25 07:44:55;;;;;;;;;;;14.60;99.90;;;;;;5037404;28;19916;-82
2022/10/25 07:47:21;;;;;;;;;;;14.60;99.90;;;;;;5030830;28;19915;-79
2022/10/25 07:49:46;;;;;;;;;;;14.60;99.90;;;;;;5056288;28;19932;-81
2022/10/25 07:52:12;;;;;;;;;;;14.70;99.90;;;;;;5057152;28;19931;-81
2022/10/25 07:54:38;;;;;;;;;;;14.70;99.90;;;;;;5039246;28;19955;-79
2022/10/25 07:57:05;;;;;;;;;;;14.70;99.90;;;;;;5057135;28;19911;-81
2022/10/25 07:59:31;;;;;;;;;;;14.70;99.90;;;;;;5057346;28;19908;-78
2022/10/25 08:01:56;;;;;;;;;;;14.70;99.90;;;;;;5056990;28;19935;-79
2022/10/25 08:04:22;;;;;;;;;;;14.70;99.90;;;;;;5056151;28;19909;-78
2022/10/25 08:06:47;;;;;;;;;;;14.70;99.90;;;;;;5039003;28;20254;-76
2022/10/25 08:09:13;;;;;;;;;;;14.80;99.90;;;;;;5056036;28;19909;-75
2022/10/25 08:11:38;;;;;;;;;;;14.80;99.90;;;;;;5057102;28;19904;-75
2022/10/25 08:14:05;;;;;;;;;;;14.90;99.90;;;;;;5056715;28;19990;-79
2022/10/25 08:16:31;;;;;;;;;;;14.90;99.90;;;;;;5056130;28;20277;-77
2022/10/25 08:18:56;;;;;;;;;;;15.00;99.90;;;;;;5056830;28;19935;-76
2022/10/25 08:21:22;;;;;;;;;;;15.00;99.90;;;;;;5057002;28;19944;-77
2022/10/25 08:23:47;;;;;;;;;;;15.10;99.90;;;;;;5057169;28;20277;-76
2022/10/25 08:26:13;;;;;;;;;;;15.20;99.90;;;;;;5056687;28;19920;-81
2022/10/25 08:28:38;;;;;;;;;;;15.20;99.90;;;;;;5056578;28;19920;-80
2022/10/25 08:31:04;;;;;;;;;;;15.30;99.90;;;;;;5055976;28;19911;-79
2022/10/25 08:33:29;;;;;;;;;;;15.30;99.90;;;;;;5056767;28;19921;-80
2022/10/25 08:35:58;;;;;;;;;;;15.30;99.90;;;;;;5055142;28;19909;-80
2022/10/25 08:38:23;;;;;;;;;;;15.40;99.90;;;;;;5038134;28;20289;-82
2022/10/25 08:40:49;;;;;;;;;;;15.60;99.90;;;;;;5057171;28;19912;-78
2022/10/25 08:43:24;;;;;;;;;;;15.70;99.90;;;;;;5056250;28;19912;-81
2022/10/25 08:45:59;;;;;;;;;;;15.70;99.90;;;;;;5056551;28;19913;-82
2022/10/25 08:48:31;;;;;;;;;;;15.60;99.90;;;;;;5056443;28;19912;-80
2022/10/25 08:50:59;;;;;;;;;;;15.70;99.90;;;;;;5052970;28;20007;-80
2022/10/25 08:53:28;;;;;;;;;;;15.70;99.90;;;;;;5053658;28;19912;-80
2022/10/25 08:55:54;;;;;;;;;;;15.90;99.90;;;;;;5056072;28;19911;-79
2022/10/25 08:58:24;;;;;;;;;;;16.30;99.90;;;;;;5055920;28;19905;-79
2022/10/25 09:00:50;;;;;;;;;;;16.60;99.90;;;;;;5056722;28;19905;-79
2022/10/25 09:03:24;;;;;;;;;;;16.80;99.90;;;;;;5055819;28;19962;-81
2022/10/25 09:06:12;;;;;;;;;;;16.90;99.90;;;;;;5056242;28;20399;-80
2022/10/25 09:08:48;;;;;;;;;;;16.80;99.90;;;;;;5053446;28;19915;-79
2022/10/25 09:11:20;;;;;;;;;;;16.70;99.90;;;;;;5056051;28;19909;-76
2022/10/25 09:13:48;;;;;;;;;;;16.90;99.90;;;;;;5039928;28;19905;-76
2022/10/25 09:16:15;;;;;;;;;;;17.30;99.90;;;;;;5041404;28;19915;-80
2022/10/25 09:18:45;;;;;;;;;;;17.30;99.90;;;;;;5050016;28;19908;-83
2022/10/25 09:21:15;;;;;;;;;;;17.00;99.90;;;;;;5037581;28;19909;-83
2022/10/25 09:23:42;;;;;;;;;;;17.10;99.90;;;;;;5037620;28;19911;-84
2022/10/25 09:26:20;;;;;;;;;;;17.20;99.90;;;;;;5037826;28;19912;-81
2022/10/25 09:28:51;;;;;;;;;;;17.20;99.90;;;;;;5037220;28;20428;-80
2022/10/25 09:31:22;;;;;;;;;;;17.00;99.90;;;;;;5053163;28;20503;-79
2022/10/25 09:33:50;;;;;;;;;;;16.70;99.90;;;;;;5055769;28;19916;-78
2022/10/25 09:36:16;;;;;;;;;;;16.60;99.90;;;;;;5052886;28;19921;-79
2022/10/25 09:38:45;;;;;;;;;;;16.50;99.90;;;;;;5055600;28;20273;-75
2022/10/25 09:41:20;;;;;;;;;;;16.40;99.90;;;;;;5055283;28;19905;-78
2022/10/25 09:43:48;;;;;;;;;;;16.40;99.90;;;;;;5050057;28;19909;-79
2022/10/25 09:46:17;;;;;;;;;;;16.30;99.90;;;;;;5035504;28;20293;-81
2022/10/25 09:48:52;;;;;;;;;;;16.20;99.90;;;;;;5017737;28;19995;-80
2022/10/25 09:51:17;;;;;;;;;;;16.20;99.90;;;;;;5035749;28;19915;-80
2022/10/25 09:53:43;;;;;;;;;;;16.20;99.90;;;;;;5035099;28;19905;-80
2022/10/25 09:56:09;;;;;;;;;;;16.30;99.90;;;;;;5046248;28;20281;-88
2022/10/25 09:58:38;;;;;;;;;;;16.40;99.90;;;;;;5037232;28;20003;-79
2022/10/25 10:01:22;;;;;;;;;;;16.50;99.90;;;;;;5055122;28;20356;-78
2022/10/25 10:03:47;;;;;;;;;;;16.60;99.90;;;;;;5042580;28;19913;-78
2022/10/25 10:06:18;;;;;;;;;;;16.70;99.90;;;;;;5017482;28;19909;-83
2022/10/25 10:09:04;;;;;;;;;;;16.80;99.90;;;;;;5025610;28;19952;-80
2022/10/25 10:11:30;;;;;;;;;;;17.00;99.90;;;;;;5026806;28;19909;-78
2022/10/25 10:13:59;;;;;;;;;;;17.10;99.90;;;;;;5020835;28;19916;-82
2022/10/25 10:16:27;;;;;;;;;;;17.30;99.90;;;;;;5016820;28;19912;-81
2022/10/25 10:19:12;;;;;;;;;;;17.20;99.90;;;;;;5034066;28;19909;-81
2022/10/25 10:21:41;;;;;;;;;;;17.00;99.90;;;;;;5034138;28;19967;-80
2022/10/25 10:24:14;;;;;;;;;;;17.00;99.90;;;;;;5039744;28;20460;-78
2022/10/25 10:26:48;;;;;;;;;;;16.90;99.90;;;;;;5054327;28;20296;-77
2022/10/25 10:29:13;;;;;;;;;;;17.00;99.90;;;;;;5052999;28;19911;-79
2022/10/25 10:31:43;;;;;;;;;;;17.00;99.90;;;;;;5036052;28;19905;-78
2022/10/25 10:34:21;;;;;;;;;;;17.00;99.90;;;;;;5054709;28;19948;-79
2022/10/25 10:36:49;;;;;;;;;;;17.10;99.90;;;;;;5053870;28;19916;-76
2022/10/25 10:39:19;;;;;;;;;;;17.30;99.90;;;;;;5054275;28;19983;-75
2022/10/25 10:42:01;;;;;;;;;;;17.40;99.90;;;;;;5054244;28;19912;-78
2022/10/25 10:44:27;;;;;;;;;;;17.40;99.90;;;;;;5054330;28;20381;-78
2022/10/25 10:46:54;;;;;;;;;;;17.50;99.90;;;;;;5054228;28;19904;-78
2022/10/25 10:49:20;;;;;;;;;;;17.50;99.90;;;;;;5054217;28;19905;-77
2022/10/25 10:51:45;;;;;;;;;;;17.50;99.90;;;;;;5035930;28;19909;-76
2022/10/25 10:54:20;;;;;;;;;;;17.60;99.90;;;;;;5054135;28;19991;-78
2022/10/25 10:56:56;;;;;;;;;;;17.60;99.90;;;;;;5053881;28;19947;-79
2022/10/25 10:59:26;;;;;;;;;;;17.60;99.90;;;;;;5054061;28;19992;-78
2022/10/25 11:01:51;;;;;;;;;;;17.60;99.90;;;;;;5053668;28;20011;-77
2022/10/25 11:04:17;;;;;;;;;;;17.50;99.90;;;;;;5054307;28;19955;-79
2022/10/25 11:06:43;;;;;;;;;;;17.50;99.90;;;;;;5053745;28;19944;-78
2022/10/25 11:09:09;;;;;;;;;;;17.60;99.90;;;;;;5053883;28;20419;-79
2022/10/25 11:11:35;;;;;;;;;;;17.70;99.90;;;;;;5035608;28;19959;-77
2022/10/25 11:14:06;;;;;;;;;;;17.70;99.90;;;;;;5053378;28;19904;-78
2022/10/25 11:16:50;;;;;;;;;;;17.80;99.90;;;;;;5053644;28;19911;-78
2022/10/25 11:19:18;;;;;;;;;;;17.80;99.90;;;;;;5053556;28;19905;-78
2022/10/25 11:21:46;;;;;;;;;;;17.90;99.90;;;;;;5053472;28;19909;-78
2022/10/25 11:24:12;;;;;;;;;;;18.00;99.90;;;;;;5035530;28;19912;-79
2022/10/25 11:26:47;;;;;;;;;;;18.00;99.90;;;;;;5036090;28;19904;-75
2022/10/25 11:29:25;;;;;;;;;;;18.00;99.90;;;;;;5053500;28;20357;-77
2022/10/25 11:32:09;;;;;;;;;;;18.00;99.90;;;;;;5035878;28;20289;-78
2022/10/25 11:34:45;;;;;;;;;;;18.00;99.90;;;;;;5053986;28;20002;-76
2022/10/25 11:37:20;;;;;;;;;;;18.00;99.90;;;;;;5053341;28;19912;-78
2022/10/25 11:39:58;;;;;;;;;;;18.00;99.90;;;;;;5053393;28;19905;-80
2022/10/25 11:42:42;;;;;;;;;;;18.00;99.90;;;;;;5053622;28;20023;-78
2022/10/25 11:45:20;;;;;;;;;;;17.90;99.90;;;;;;5053565;28;19987;-79
2022/10/25 11:47:48;;;;;;;;;;;18.00;99.90;;;;;;5053858;28;19905;-77
2022/10/25 11:50:27;;;;;;;;;;;18.00;99.90;;;;;;5053270;28;19920;-79
2022/10/25 11:52:59;;;;;;;;;;;18.10;99.90;;;;;;5053576;28;19905;-77
2022/10/25 11:55:34;;;;;;;;;;;18.10;99.90;;;;;;5053278;28;19908;-76
2022/10/25 11:58:09;;;;;;;;;;;18.20;99.90;;;;;;5053228;28;20445;-75
2022/10/25 12:00:57;;;;;;;;;;;18.30;99.90;;;;;;5053460;28;19912;-78
2022/10/25 12:03:41;;;;;;;;;;;18.30;99.90;;;;;;5052952;28;20345;-76
2022/10/25 12:06:14;;;;;;;;;;;18.30;99.90;;;;;;5053122;28;20404;-80
2022/10/25 12:08:49;;;;;;;;;;;18.40;99.90;;;;;;5053092;28;19909;-78
2022/10/25 12:11:20;;;;;;;;;;;18.40;99.90;;;;;;5053351;28;19930;-77
2022/10/25 12:13:49;;;;;;;;;;;18.40;99.90;;;;;;5053074;28;19912;-77
2022/10/25 12:16:15;;;;;;;;;;;18.40;99.90;;;;;;5053008;28;20379;-77
2022/10/25 12:18:43;;;;;;;;;;;18.50;99.90;;;;;;5052978;28;20392;-77
2022/10/25 12:21:10;;;;;;;;;;;18.60;99.90;;;;;;5053263;28;19947;-77
2022/10/25 12:23:50;;;;;;;;;;;18.70;99.90;;;;;;5052869;28;20074;-78
2022/10/25 12:26:33;;;;;;;;;;;18.80;99.90;;;;;;5035024;28;19904;-79
2022/10/25 12:29:03;;;;;;;;;;;18.80;99.90;;;;;;5056582;28;19905;-77
2022/10/25 12:31:32;;;;;;;;;;;18.80;99.90;;;;;;5056764;28;19912;-76
2022/10/25 12:34:03;;;;;;;;;;;18.70;99.90;;;;;;5056802;28;20436;-78
2022/10/25 12:36:37;;;;;;;;;;;18.70;99.90;;;;;;5056299;28;19917;-76
2022/10/25 12:39:09;;;;;;;;;;;18.70;99.90;;;;;;5056950;28;19912;-79
2022/10/25 12:41:36;;;;;;;;;;;18.80;99.90;;;;;;5056295;28;19913;-79
2022/10/25 12:44:01;;;;;;;;;;;18.70;99.90;;;;;;5056589;28;19905;-76
2022/10/25 12:46:33;;;;;;;;;;;18.70;99.90;;;;;;5056504;28;19955;-79
2022/10/25 12:49:02;;;;;;;;;;;18.70;99.90;;;;;;5056453;28;19912;-78
2022/10/25 12:51:31;;;;;;;;;;;18.70;99.90;;;;;;5056152;28;19909;-77
2022/10/25 12:54:15;;;;;;;;;;;18.80;99.90;;;;;;5056066;28;19974;-79
2022/10/25 12:56:58;;;;;;;;;;;18.80;99.90;;;;;;5056583;28;19904;-79
2022/10/25 12:59:23;;;;;;;;;;;18.90;99.90;;;;;;5055928;28;19933;-78
2022/10/25 13:01:57;;;;;;;;;;;18.90;99.90;;;;;;5055840;28;19913;-79
2022/10/25 13:04:25;;;;;;;;;;;18.80;99.90;;;;;;5056173;28;20371;-76
2022/10/25 13:06:51;;;;;;;;;;;18.80;99.90;;;;;;5056014;28;20035;-78
2022/10/25 13:09:18;;;;;;;;;;;18.80;99.90;;;;;;5055674;28;19947;-78
2022/10/25 13:11:46;;;;;;;;;;;18.80;99.90;;;;;;5055618;28;19988;-77
2022/10/25 13:14:15;;;;;;;;;;;18.80;99.90;;;;;;5056187;28;19904;-77
2022/10/25 13:16:40;;;;;;;;;;;18.80;99.90;;;;;;5055578;28;19904;-76
2022/10/25 13:19:22;;;;;;;;;;;18.70;99.90;;;;;;5055799;28;20273;-79
2022/10/25 13:21:50;;;;;;;;;;;18.60;99.90;;;;;;5055385;28;20376;-77
2022/10/25 13:24:35;;;;;;;;;;;18.60;99.90;;;;;;5055502;28;19905;-77
2022/10/25 13:27:12;;;;;;;;;;;18.70;99.90;;;;;;5055753;28;19909;-78
2022/10/25 13:29:47;;;;;;;;;;;18.70;99.90;;;;;;5055368;28;20288;-77
2022/10/25 13:32:15;;;;;;;;;;;18.70;99.90;;;;;;5037342;28;20277;-76
2022/10/25 13:34:40;;;;;;;;;;;18.70;99.90;;;;;;5056109;28;19999;-77
2022/10/25 13:37:26;;;;;;;;;;;18.70;99.90;;;;;;5054562;28;20010;-78
2022/10/25 13:39:53;;;;;;;;;;;18.70;99.90;;;;;;5055387;28;19905;-77
2022/10/25 13:42:22;;;;;;;;;;;18.70;99.90;;;;;;5054989;28;19912;-78
2022/10/25 13:44:52;;;;;;;;;;;18.60;99.90;;;;;;5055459;28;19905;-78
2022/10/25 13:47:36;;;;;;;;;;;18.70;99.90;;;;;;5055332;28;20463;-79
2022/10/25 13:50:12;;;;;;;;;;;18.60;99.90;;;;;;5055019;28;19905;-77
2022/10/25 13:52:44;;;;;;;;;;;18.60;99.90;;;;;;5055276;28;19927;-76
2022/10/25 13:55:14;;;;;;;;;;;18.60;99.90;;;;;;5055241;28;19904;-76
2022/10/25 13:57:55;;;;;;;;;;;18.60;99.90;;;;;;5054874;28;20364;-77
2022/10/25 14:00:25;;;;;;;;;;;18.60;99.90;;;;;;5055283;28;19912;-79
2022/10/25 14:03:09;;;;;;;;;;;18.60;99.90;;;;;;5036760;28;19916;-77
2022/10/25 14:05:53;;;;;;;;;;;18.50;99.90;;;;;;5054716;28;20050;-77
2022/10/25 14:08:21;;;;;;;;;;;18.50;99.90;;;;;;5054895;28;19929;-76
2022/10/25 14:10:48;;;;;;;;;;;18.50;99.90;;;;;;5054850;28;19915;-79
2022/10/25 14:13:17;;;;;;;;;;;18.50;99.90;;;;;;5054633;28;19905;-79
2022/10/25 14:15:47;;;;;;;;;;;18.60;99.90;;;;;;5055071;28;19904;-77
2022/10/25 14:18:15;;;;;;;;;;;18.60;99.90;;;;;;5054449;28;19905;-78
2022/10/25 14:20:44;;;;;;;;;;;18.70;99.90;;;;;;5054699;28;20050;-77
2022/10/25 14:23:13;;;;;;;;;;;18.80;99.90;;;;;;5054302;28;19913;-76
2022/10/25 14:25:40;;;;;;;;;;;18.80;99.90;;;;;;5054881;28;20353;-76
2022/10/25 14:28:07;;;;;;;;;;;18.80;99.90;;;;;;5054280;28;19905;-78